Time;durP1;ratioP1;P1;durP2;ratioP2;P2;SDS_P1;SDS_P2;PMS_P1;PMS_P2;Temp;Humidity;BMP_temperature;BMP_pressure;BME280_temperature;BME280_humidity;BME280_pressure;Samples;Min_cycle;Max_cycle;Signal;HPM_P1;HPM_P2
2022/05/22 00:00:22;;;;;;;4.35;1.77;;;;;;;11.72;100.00;98464.62;4402437;32;20047;-75
2022/05/22 00:03:03;;;;;;;3.20;1.60;;;;;;;12.01;100.00;98474.06;4401936;32;20046;-75
2022/05/22 00:05:30;;;;;;;1.73;1.62;;;;;;;11.96;100.00;98494.56;4399626;32;20039;-74
2022/05/22 00:07:58;;;;;;;3.78;1.90;;;;;;;12.04;100.00;98497.81;4388952;32;20089;-76
2022/05/22 00:10:25;;;;;;;2.42;1.75;;;;;;;12.01;100.00;98498.34;4402568;32;20421;-76
2022/05/22 00:12:51;;;;;;;2.25;1.50;;;;;;;11.97;100.00;98498.87;4403002;32;20035;-76
2022/05/22 00:15:18;;;;;;;6.97;1.87;;;;;;;11.75;100.00;98495.62;4388656;32;20035;-76
2022/05/22 00:17:44;;;;;;;2.25;1.42;;;;;;;11.83;100.00;98487.00;4401022;32;20043;-74
2022/05/22 00:20:12;;;;;;;5.28;1.70;;;;;;;11.63;100.00;98461.66;4401480;32;20035;-76
2022/05/22 00:22:40;;;;;;;5.22;1.55;;;;;;;11.88;100.00;98500.47;4402215;32;20363;-76
2022/05/22 00:25:10;;;;;;;1.83;1.62;;;;;;;11.91;100.00;98504.53;4402865;32;20379;-77
2022/05/22 00:27:38;;;;;;;2.58;1.45;;;;;;;11.98;100.00;98511.31;4388403;32;20035;-76
2022/05/22 00:30:05;;;;;;;3.33;1.70;;;;;;;11.98;100.00;98495.12;4388236;32;20052;-77
2022/05/22 00:32:31;;;;;;;3.47;1.62;;;;;;;11.82;100.00;98466.50;4402956;32;20934;-77
2022/05/22 00:34:57;;;;;;;9.20;5.22;;;;;;;11.80;100.00;98477.53;4394349;32;20039;-76
2022/05/22 00:37:24;;;;;;;1.42;1.40;;;;;;;11.62;100.00;98480.81;4393855;32;20035;-77
2022/05/22 00:39:54;;;;;;;3.17;1.62;;;;;;;11.85;100.00;98490.22;4387064;32;20064;-76
2022/05/22 00:42:23;;;;;;;7.87;1.52;;;;;;;11.85;100.00;98484.81;4402017;32;20043;-77
2022/05/22 00:44:50;;;;;;;1.27;1.27;;;;;;;11.67;100.00;98467.31;4388276;32;20047;-77
2022/05/22 00:47:17;;;;;;;2.72;1.90;;;;;;;11.84;100.00;98491.31;4401949;32;20042;-77
2022/05/22 00:49:44;;;;;;;1.23;1.23;;;;;;;11.68;100.00;98487.81;4386095;32;20449;-76
2022/05/22 00:52:34;;;;;;;3.85;1.45;;;;;;;11.81;100.00;98478.38;4401115;32;20055;-77
2022/05/22 00:55:10;;;;;;;2.03;1.35;;;;;;;11.93;100.00;98481.59;4401102;32;20035;-75
2022/05/22 00:57:43;;;;;;;4.93;1.55;;;;;;;11.85;100.00;98484.81;4400697;32;20043;-75
2022/05/22 01:00:11;;;;;;;;;;;;;;;11.59;100.00;98467.88;4402174;32;20085;-75
2022/05/22 01:05:28;;;;;;;1.55;1.40;;;;;;;11.23;100.00;98436.31;4386531;32;20047;-76
2022/05/22 01:07:57;;;;;;;3.28;1.45;;;;;;;11.62;100.00;98508.56;4392466;32;20055;-76
2022/05/22 01:10:32;;;;;;;2.50;1.33;;;;;;;11.25;100.00;98450.31;4386742;32;20057;-76
2022/05/22 01:13:01;;;;;;;3.35;1.15;;;;;;;11.74;100.00;98488.62;4383747;32;20057;-75
2022/05/22 01:15:27;;;;;;;2.45;1.35;;;;;;;11.67;100.00;98498.87;4385943;32;20043;-75
2022/05/22 01:17:53;;;;;;;2.45;1.60;;;;;;;11.56;100.00;98488.06;4402054;32;20090;-76
2022/05/22 01:20:21;;;;;;;1.37;1.23;;;;;;;11.57;100.00;98495.09;4400187;32;20430;-75
2022/05/22 01:22:54;;;;;;;1.12;1.12;;;;;;;11.40;100.00;98505.31;4400254;32;20056;-75
2022/05/22 01:25:21;;;;;;;1.50;1.00;;;;;;;11.36;100.00;98504.22;4388245;32;20027;-76
2022/05/22 01:27:48;;;;;;;1.12;0.93;;;;;;;11.48;100.00;98507.47;4401663;32;20068;-75
2022/05/22 01:30:17;;;;;;;6.03;1.30;;;;;;;11.51;100.00;98496.16;4401714;32;20322;-75
2022/05/22 01:32:46;;;;;;;4.62;1.20;;;;;;;11.70;100.00;98501.03;4399606;32;20072;-75
2022/05/22 01:35:17;;;;;;;3.10;1.00;;;;;;;11.56;100.00;98509.66;4387667;32;20055;-76
2022/05/22 01:37:45;;;;;;;1.90;1.02;;;;;;;11.69;100.00;98508.31;4386567;32;20031;-76
2022/05/22 01:40:19;;;;;;;3.85;1.15;;;;;;;11.61;100.00;98500.75;4387144;32;20057;-74
2022/05/22 01:42:48;;;;;;;0.88;0.88;;;;;;;11.63;100.00;98510.19;4400324;32;20851;-77
2022/05/22 01:45:18;;;;;;;3.55;1.12;;;;;;;11.68;100.00;98489.69;4401864;32;20413;-76
2022/05/22 01:47:45;;;;;;;1.10;1.10;;;;;;;11.32;100.00;98439.28;4373201;32;20060;-75
2022/05/22 01:50:12;;;;;;;2.80;1.30;;;;;;;11.56;100.00;98485.38;4384469;32;20417;-75
2022/05/22 01:52:39;;;;;;;5.15;1.33;;;;;;;11.57;100.00;98489.72;4386527;32;20082;-76
2022/05/22 01:55:08;;;;;;;2.12;1.00;;;;;;;11.54;100.00;98484.06;4386586;32;20040;-75
2022/05/22 01:57:36;;;;;;;1.80;1.27;;;;;;;11.59;100.00;98481.34;4400951;32;20073;-76
2022/05/22 02:00:05;;;;;;;11.52;1.27;;;;;;;11.51;100.00;98480.00;4397924;32;20087;-75
2022/05/22 02:02:42;;;;;;;4.68;1.17;;;;;;;11.59;100.00;98479.44;4402238;32;20142;-76
2022/05/22 02:05:10;;;;;;;1.45;1.10;;;;;;;11.44;100.00;98484.84;4404165;32;20191;-76
2022/05/22 02:10:24;;;;;;;8.50;1.48;;;;;;;11.18;100.00;98479.41;4404554;32;20065;-75
2022/05/22 02:12:52;;;;;;;1.60;1.10;;;;;;;11.32;100.00;98477.00;4404529;32;20068;-76
2022/05/22 02:15:18;;;;;;;1.92;1.10;;;;;;;11.32;100.00;98478.91;4404324;32;20065;-76
2022/05/22 02:17:45;;;;;;;1.75;1.10;;;;;;;11.24;100.00;98474.84;4402105;32;20097;-77
2022/05/22 02:20:12;;;;;;;1.52;1.20;;;;;;;11.34;100.00;98479.44;4403953;32;20108;-77
2022/05/22 02:22:44;;;;;;;1.62;1.20;;;;;;;11.29;100.00;98482.13;4404611;32;20412;-77
2022/05/22 02:25:15;;;;;;;1.35;1.10;;;;;;;11.33;100.00;98496.69;4404107;32;20413;-77
2022/05/22 02:27:49;;;;;;;2.97;1.37;;;;;;;11.14;100.00;98464.88;4403528;32;20401;-76
2022/05/22 02:30:20;;;;;;;2.40;1.40;;;;;;;11.18;100.00;98492.87;4390839;32;20034;-77
2022/05/22 02:32:47;;;;;;;2.10;0.80;;;;;;;11.21;100.00;98495.03;4403928;32;20060;-77
2022/05/22 02:35:15;;;;;;;2.45;1.02;;;;;;;11.14;100.00;98494.50;4403191;32;20199;-76
2022/05/22 02:37:48;;;;;;;2.65;1.17;;;;;;;11.12;100.00;98491.28;4402458;32;20047;-77
2022/05/22 02:40:18;;;;;;;1.60;1.23;;;;;;;11.17;100.00;98488.59;4403950;32;20030;-77
2022/05/22 02:42:48;;;;;;;3.60;1.85;;;;;;;11.04;100.00;98487.22;4404153;32;20034;-77
2022/05/22 02:45:20;;;;;;;2.05;1.52;;;;;;;11.09;100.00;98484.53;4401706;32;20436;-75
2022/05/22 02:47:53;;;;;;;1.12;1.12;;;;;;;11.11;100.00;98478.06;4403950;32;20077;-75
2022/05/22 02:50:30;;;;;;;1.45;1.35;;;;;;;10.96;100.00;98473.44;4403794;32;20461;-76
2022/05/22 02:53:00;;;;;;;1.17;1.17;;;;;;;11.12;100.00;98491.28;4401819;32;20047;-76
2022/05/22 02:55:27;;;;;;;1.17;1.05;;;;;;;10.81;100.00;98461.56;4403306;32;20080;-77
2022/05/22 02:57:54;;;;;;;1.48;1.37;;;;;;;11.00;100.00;98485.31;4403335;32;20072;-77
2022/05/22 03:00:26;;;;;;;2.45;1.98;;;;;;;10.95;100.00;98475.34;4403695;32;20047;-77
2022/05/22 03:02:53;;;;;;;1.95;1.80;;;;;;;11.25;100.00;98493.44;4388461;32;20039;-77
2022/05/22 03:05:20;;;;;;;1.52;1.42;;;;;;;10.96;100.00;98459.97;4403336;32;20081;-76
2022/05/22 03:07:48;;;;;;;3.67;1.60;;;;;;;11.07;100.00;98486.69;4389219;32;20038;-77
2022/05/22 03:10:18;;;;;;;1.58;1.30;;;;;;;11.11;100.00;98449.22;4403396;32;20068;-77
2022/05/22 03:12:44;;;;;;;1.48;1.48;;;;;;;11.04;100.00;98465.66;4401170;32;20031;-76
2022/05/22 03:15:16;;;;;;;1.70;1.60;;;;;;;11.19;100.00;98489.12;4403272;32;20072;-77
2022/05/22 03:17:42;;;;;;;2.78;1.85;;;;;;;11.02;100.00;98453.53;4403402;32;20080;-76
2022/05/22 03:20:09;;;;;;;1.42;1.33;;;;;;;11.32;100.00;98481.59;4401632;32;20391;-77
2022/05/22 03:22:36;;;;;;;2.25;1.20;;;;;;;11.40;100.00;98489.16;4416180;32;20039;-75
2022/05/22 03:25:05;;;;;;;6.53;1.65;;;;;;;11.41;100.00;98485.38;4402246;32;20043;-77
2022/05/22 03:27:32;;;;;;;12.27;1.73;;;;;;;11.50;100.00;98489.16;4388256;32;20031;-77
2022/05/22 03:29:59;;;;;;;1.62;1.33;;;;;;;11.40;100.00;98472.97;4403064;32;20350;-76
2022/05/22 03:32:25;;;;;;;1.52;1.42;;;;;;;11.49;100.00;98479.47;4402683;32;20057;-74
2022/05/22 03:34:52;;;;;;;2.30;1.25;;;;;;;11.44;100.00;98474.06;4401252;32;20026;-77
2022/05/22 03:37:19;;;;;;;1.62;1.30;;;;;;;11.44;100.00;98484.84;4403121;32;20047;-77
2022/05/22 03:39:45;;;;;;;2.72;1.33;;;;;;;11.43;100.00;98488.62;4402119;32;20027;-77
2022/05/22 03:42:12;;;;;;;3.33;1.45;;;;;;;11.24;100.00;98486.44;4403275;32;20035;-77
2022/05/22 03:44:39;;;;;;;2.55;1.50;;;;;;;11.36;100.00;98488.06;4401833;32;20080;-77
2022/05/22 03:47:05;;;;;;;2.33;1.40;;;;;;;11.08;100.00;98455.16;4402090;32;20379;-77
2022/05/22 03:49:33;;;;;;;2.25;0.98;;;;;;;11.42;100.00;98481.59;4402968;32;20035;-76
2022/05/22 03:52:01;;;;;;;3.33;2.03;;;;;;;11.39;100.00;98503.69;4402786;32;20064;-76
2022/05/22 03:54:27;;;;;;;3.53;1.37;;;;;;;11.43;100.00;98483.22;4403449;32;20356;-75
2022/05/22 03:56:56;;;;;;;1.25;1.23;;;;;;;11.26;100.00;98446.56;4400337;32;20035;-75
2022/05/22 03:59:26;;;;;;;1.90;1.62;;;;;;;11.60;100.00;98483.78;4402879;32;20439;-76
2022/05/22 04:01:53;;;;;;;2.83;1.30;;;;;;;11.55;100.00;98464.91;4402757;32;20031;-77
2022/05/22 04:04:20;;;;;;;2.20;1.10;;;;;;;11.40;100.00;98495.34;4402281;32;20489;-76
2022/05/22 04:06:46;;;;;;;1.60;1.50;;;;;;;11.57;100.00;98500.50;4401790;32;20061;-74
2022/05/22 04:09:13;;;;;;;1.42;1.30;;;;;;;10.89;100.00;98403.66;4389022;32;20047;-77
2022/05/22 04:11:47;;;;;;;1.73;1.60;;;;;;;11.59;100.00;98492.94;4390214;32;20047;-77
2022/05/22 04:14:20;;;;;;;1.12;1.12;;;;;;;11.58;100.00;98485.09;4402688;32;20064;-75
2022/05/22 04:16:49;;;;;;;1.77;1.30;;;;;;;11.44;100.00;98463.28;4389620;32;20112;-76
2022/05/22 04:19:16;;;;;;;2.05;1.80;;;;;;;11.71;100.00;98487.28;4402292;32;20043;-77
2022/05/22 04:21:44;;;;;;;1.33;1.20;;;;;;;11.48;100.00;98458.16;4389151;32;20045;-76
2022/05/22 04:26:55;;;;;;;2.67;1.60;;;;;;;11.62;100.00;98492.41;4402133;32;20042;-76
2022/05/22 04:29:22;;;;;;;2.20;1.20;;;;;;;11.83;100.00;98487.00;4400582;32;20391;-76
2022/05/22 04:31:49;;;;;;;1.48;1.25;;;;;;;11.86;100.00;98496.44;4402417;32;20039;-76
2022/05/22 04:34:16;;;;;;;6.30;1.75;;;;;;;11.81;100.00;98481.06;4399848;32;20022;-76
2022/05/22 04:36:43;;;;;;;7.97;1.30;;;;;;;11.83;100.00;98468.13;4401981;32;20058;-76
2022/05/22 04:39:11;;;;;;;3.75;1.20;;;;;;;11.77;100.00;98455.72;4387302;32;20053;-76
2022/05/22 04:41:38;;;;;;;1.87;1.10;;;;;;;11.90;100.00;98482.16;4402270;32;20039;-76
2022/05/22 04:44:06;;;;;;;7.43;3.15;;;;;;;11.74;100.00;98461.66;4400948;32;20056;-73
2022/05/22 04:46:33;;;;;;;2.80;1.60;;;;;;;11.89;100.00;98496.72;4399718;32;20076;-74
2022/05/22 04:49:00;;;;;;;4.32;2.05;;;;;;;11.96;100.00;98499.94;4413225;32;20351;-74
2022/05/22 04:51:27;;;;;;;3.90;1.62;;;;;;;11.84;100.00;98503.97;4417494;32;20366;-75
2022/05/22 04:53:54;;;;;;;1.15;0.82;;;;;;;11.80;100.00;98504.53;4417160;32;20386;-75
2022/05/22 04:56:21;;;;;;;1.23;0.82;;;;;;;11.62;100.00;98487.00;4402562;32;20065;-75
2022/05/22 04:58:49;;;;;;;3.45;1.12;;;;;;;11.45;100.00;98475.66;4401769;32;20054;-75
2022/05/22 05:01:16;;;;;;;0.80;0.80;;;;;;;11.51;100.00;98474.59;4387975;32;20047;-76
2022/05/22 05:03:44;;;;;;;14.23;1.62;;;;;;;11.81;100.00;98516.13;4400465;32;20329;-76
2022/05/22 05:06:11;;;;;;;2.45;1.10;;;;;;;11.73;100.00;98500.50;4400694;32;20035;-75
2022/05/22 05:08:37;;;;;;;1.83;1.50;;;;;;;11.79;100.00;98502.09;4400199;32;20043;-76
2022/05/22 05:11:04;;;;;;;3.70;1.27;;;;;;;11.76;100.00;98481.09;4401722;32;20105;-76
2022/05/22 05:13:31;;;;;;;2.20;1.02;;;;;;;11.95;100.00;98517.25;4400353;32;20465;-76
2022/05/22 05:16:06;;;;;;;5.37;1.00;;;;;;;12.09;100.00;98512.06;4401737;32;20046;-76
2022/05/22 05:18:35;;;;;;;0.93;0.93;;;;;;;12.06;100.00;98501.03;4400282;32;20345;-76
2022/05/22 05:21:11;;;;;;;1.00;1.00;;;;;;;11.96;100.00;98497.25;4401629;32;20089;-75
2022/05/22 05:23:39;;;;;;;1.87;1.00;;;;;;;12.35;100.00;98529.06;4406521;32;20043;-76
2022/05/22 05:26:07;;;;;;;1.27;0.90;;;;;;;12.23;100.00;98525.03;4411688;32;20073;-76
2022/05/22 05:28:35;;;;;;;2.30;0.80;;;;;;;12.09;100.00;98517.47;4385189;32;20057;-76
2022/05/22 05:31:03;;;;;;;3.60;1.23;;;;;;;12.27;100.00;98508.03;4406819;32;20038;-76
2022/05/22 05:33:32;;;;;;;8.32;1.02;;;;;;;12.35;100.00;98515.56;4402646;32;20034;-77
2022/05/22 05:36:00;;;;;;;5.35;1.60;;;;;;;12.29;100.00;98538.25;4410491;32;20104;-75
2022/05/22 05:38:30;;;;;;;3.20;1.55;;;;;;;12.39;100.00;98506.91;4391388;32;20061;-76
2022/05/22 05:40:58;;;;;;;3.95;0.90;;;;;;;12.44;100.00;98518.47;4404163;32;20031;-76
2022/05/22 05:43:25;;;;;;;1.33;0.95;;;;;;;12.38;100.00;98513.38;4401720;32;20030;-76
2022/05/22 05:45:51;;;;;;;1.77;1.25;;;;;;;12.45;100.00;98486.91;4395744;32;20085;-77
2022/05/22 05:48:18;;;;;;;3.45;1.10;;;;;;;12.57;100.00;98511.69;4402242;32;20055;-75
2022/05/22 05:50:45;;;;;;;2.30;1.27;;;;;;;12.53;100.00;98526.84;4404365;32;20051;-75
2022/05/22 05:53:12;;;;;;;1.15;1.08;;;;;;;12.37;100.00;98533.38;4404340;32;20047;-77
2022/05/22 05:55:47;;;;;;;2.35;1.00;;;;;;;12.42;100.00;98519.88;4390456;32;20060;-76
2022/05/22 05:58:19;;;;;;;0.98;0.98;;;;;;;12.37;100.00;98523.37;4393563;32;20090;-77
2022/05/22 06:00:48;;;;;;;1.27;0.90;;;;;;;12.34;100.00;98518.53;4404445;32;20076;-77
2022/05/22 06:03:14;;;;;;;2.40;1.27;;;;;;;12.20;100.00;98528.28;4389083;32;20035;-77
2022/05/22 06:05:42;;;;;;;2.12;1.02;;;;;;;12.18;100.00;98512.34;4390588;32;20039;-76
2022/05/22 06:08:09;;;;;;;1.08;0.75;;;;;;;12.31;100.00;98525.28;4401447;32;20119;-74
2022/05/22 06:10:37;;;;;;;0.95;0.95;;;;;;;12.21;100.00;98476.72;4392373;32;20491;-76
2022/05/22 06:13:08;;;;;;;0.73;0.70;;;;;;;12.55;100.00;98535.47;4388978;32;20061;-76
2022/05/22 06:15:34;;;;;;;9.43;0.88;;;;;;;12.49;100.00;98541.97;4387466;32;20035;-76
2022/05/22 06:18:01;;;;;;;4.10;1.08;;;;;;;12.52;100.00;98525.22;4402075;32;20348;-75
2022/05/22 06:20:29;;;;;;;1.30;1.00;;;;;;;12.54;100.00;98528.47;4394623;32;20051;-76
2022/05/22 06:22:58;;;;;;;2.20;1.25;;;;;;;12.34;100.00;98522.03;4404038;32;20064;-77
2022/05/22 06:25:28;;;;;;;2.25;1.12;;;;;;;12.41;100.00;98534.44;4402609;32;20043;-77
2022/05/22 06:27:54;;;;;;;0.80;0.80;;;;;;;12.60;100.00;98535.44;4402554;32;20057;-76
2022/05/22 06:30:24;;;;;;;1.10;1.02;;;;;;;12.85;100.00;98520.25;4402763;32;20046;-77
2022/05/22 06:32:51;;;;;;;1.15;1.15;;;;;;;12.83;100.00;98504.31;4419405;32;20378;-75
2022/05/22 06:35:18;;;;;;;1.58;0.80;;;;;;;12.77;100.00;98531.63;4413778;32;20065;-77
2022/05/22 06:37:45;;;;;;;1.20;1.20;;;;;;;12.44;100.00;98518.47;4388644;32;20399;-77
2022/05/22 06:40:12;;;;;;;3.30;1.10;;;;;;;12.66;100.00;98525.44;4392636;32;20065;-77
2022/05/22 06:42:42;;;;;;;4.75;1.25;;;;;;;12.32;100.00;98516.09;4403222;32;20096;-76
2022/05/22 06:45:22;;;;;;;5.05;1.20;;;;;;;12.62;100.00;98519.81;4394887;32;20043;-75
2022/05/22 06:47:49;;;;;;;2.87;2.50;;;;;;;12.69;100.00;98531.09;4385288;32;20047;-75
2022/05/22 06:50:19;;;;;;;6.22;2.50;;;;;;;12.46;100.00;98524.44;4402316;32;20711;-78
2022/05/22 06:52:45;;;;;;;2.28;1.12;;;;;;;12.61;100.00;98523.56;4388480;32;20035;-76
2022/05/22 06:55:13;;;;;;;4.47;1.52;;;;;;;12.56;100.00;98526.31;4387945;32;20040;-77
2022/05/22 06:57:42;;;;;;;1.40;0.93;;;;;;;12.62;100.00;98527.91;4386533;32;20057;-77
2022/05/22 07:00:14;;;;;;;6.00;1.33;;;;;;;12.32;100.00;98536.91;4384052;32;20064;-74
2022/05/22 07:02:43;;;;;;;1.87;1.55;;;;;;;12.71;100.00;98534.34;4375283;32;20043;-75
2022/05/22 07:05:11;;;;;;;5.20;1.15;;;;;;;12.31;100.00;98530.66;4373975;32;20391;-76
2022/05/22 07:07:38;;;;;;;2.20;1.12;;;;;;;11.99;100.00;98507.50;4390188;32;20039;-75
2022/05/22 07:10:08;;;;;;;1.67;1.20;;;;;;;12.27;100.00;98535.00;4386497;32;20044;-73
2022/05/22 07:12:37;;;;;;;1.05;1.00;;;;;;;11.98;100.00;98484.31;4390062;32;20031;-74
2022/05/22 07:15:05;;;;;;;1.00;1.00;;;;;;;12.37;100.00;98533.38;4402516;32;20038;-75
2022/05/22 07:17:33;;;;;;;1.30;1.20;;;;;;;12.20;100.00;98515.56;4401591;32;20068;-73
2022/05/22 07:20:01;;;;;;;1.12;1.02;;;;;;;12.34;100.00;98530.13;4399287;32;20456;-74
2022/05/22 07:22:32;;;;;;;1.27;1.10;;;;;;;12.17;100.00;98508.84;4394604;32;20043;-78
2022/05/22 07:24:59;;;;;;;1.95;1.42;;;;;;;12.13;100.00;98506.97;4401180;32;20043;-78
2022/05/22 07:27:25;;;;;;;1.33;1.10;;;;;;;12.29;100.00;98538.25;4389138;32;20385;-77
2022/05/22 07:29:52;;;;;;;2.05;1.17;;;;;;;12.35;100.00;98537.16;4386721;32;20051;-76
2022/05/22 07:32:20;;;;;;;1.20;1.00;;;;;;;12.42;100.00;98541.47;4387604;32;20079;-77
2022/05/22 07:34:48;;;;;;;1.25;1.00;;;;;;;12.47;100.00;98511.75;4387449;32;20057;-76
2022/05/22 07:37:16;;;;;;;1.27;0.93;;;;;;;12.72;100.00;98527.84;4401263;32;20035;-76
2022/05/22 07:39:43;;;;;;;2.12;1.27;;;;;;;12.54;100.00;98485.28;4400681;32;20042;-76
2022/05/22 07:42:09;;;;;;;1.02;1.00;;;;;;;12.42;100.00;98455.88;4399560;32;20131;-76
2022/05/22 07:44:41;;;;;;;4.07;1.20;;;;;;;12.93;100.00;98518.88;4402586;32;20124;-77
2022/05/22 07:47:08;;;;;;;1.80;1.08;;;;;;;12.90;100.00;98537.22;4389194;32;20038;-76
2022/05/22 07:52:27;;;;;;;1.85;1.00;;;;;;;12.74;100.00;98526.78;4401042;32;20083;-79
2022/05/22 07:54:55;;;;;;;3.60;1.00;;;;;;;12.64;100.00;98538.44;4403232;32;20034;-79
2022/05/22 07:57:25;;;;;;;1.95;1.20;;;;;;;12.69;100.00;98517.59;4389436;32;20072;-79
2022/05/22 07:59:52;;;;;;;5.87;1.80;;;;;;;12.69;100.00;98541.91;4399408;32;20059;-80
2022/05/22 08:02:18;;;;;;;1.98;1.30;;;;;;;12.44;100.00;98534.69;4401099;32;20482;-79
2022/05/22 08:04:45;;;;;;;6.35;2.58;;;;;;;12.71;100.00;98534.34;4401638;32;20042;-76
2022/05/22 08:07:16;;;;;;;5.00;1.60;;;;;;;12.85;100.00;98522.94;4388949;32;20042;-78
2022/05/22 08:09:43;;;;;;;3.65;1.85;;;;;;;12.85;100.00;98522.94;4401738;32;20042;-76
2022/05/22 08:12:10;;;;;;;6.65;1.87;;;;;;;12.68;100.00;98497.09;4387538;32;20078;-78
2022/05/22 08:14:37;;;;;;;1.30;1.20;;;;;;;12.96;100.00;98535.31;4403233;32;20069;-80
2022/05/22 08:17:05;;;;;;;3.60;1.20;;;;;;;12.89;100.00;98530.22;4401535;32;20039;-79
2022/05/22 08:19:32;;;;;;;4.00;1.35;;;;;;;12.86;100.00;98532.66;4401707;32;20379;-80
2022/05/22 08:21:59;;;;;;;2.17;1.80;;;;;;;12.92;100.00;98534.25;4398664;32;20379;-76
2022/05/22 08:24:28;;;;;;;1.87;1.60;;;;;;;12.96;100.00;98523.72;4401589;32;20088;-83
2022/05/22 08:26:57;;;;;;;8.15;1.45;;;;;;;12.76;100.00;98489.50;4402034;32;20042;-78
2022/05/22 08:29:25;;;;;;;2.03;1.85;;;;;;;12.94;100.00;98521.28;4388920;32;20345;-79
2022/05/22 08:31:52;;;;;;;13.10;1.87;;;;;;;12.84;100.00;98542.94;4402811;32;20061;-84
2022/05/22 08:34:19;;;;;;;5.05;1.67;;;;;;;12.74;100.00;98534.88;4400736;32;20080;-78
2022/05/22 08:36:45;;;;;;;4.78;1.37;;;;;;;12.71;100.00;98528.94;4402594;32;20063;-77
2022/05/22 08:39:11;;;;;;;4.95;2.90;;;;;;;12.79;100.00;98530.25;4386503;32;20041;-77
2022/05/22 08:41:46;;;;;;;1.90;1.45;;;;;;;12.98;100.00;98532.34;4387838;32;20073;-78
2022/05/22 08:44:21;;;;;;;4.00;1.98;;;;;;;13.03;100.00;98527.72;4401553;32;20073;-78
2022/05/22 08:46:57;;;;;;;6.40;1.95;;;;;;;13.08;100.00;98527.72;4396076;32;20132;-80
2022/05/22 08:49:48;;;;;;;4.70;2.35;;;;;;;13.16;100.00;98528.19;4399100;32;20461;-78
2022/05/22 08:52:22;;;;;;;4.93;1.40;;;;;;;13.20;100.00;98531.97;4402320;32;20350;-78
2022/05/22 08:54:58;;;;;;;1.95;1.48;;;;;;;12.79;100.00;98497.84;4386492;32;20043;-79
2022/05/22 09:00:17;;;;;;;2.08;1.50;;;;;;;13.04;100.00;98523.13;4412273;32;20030;-78
2022/05/22 09:03:04;;;;;;;5.32;1.50;;;;;;;12.96;100.00;98524.53;4407996;32;20042;-77
2022/05/22 09:05:31;;;;;;;1.98;1.65;;;;;;;12.58;100.00;98513.31;4410798;32;20223;-80
2022/05/22 09:08:06;;;;;;;3.50;1.67;;;;;;;12.80;100.00;98533.78;4411406;32;20378;-79
2022/05/22 09:10:56;;;;;;;3.90;1.60;;;;;;;12.82;100.00;98531.59;4398017;32;20436;-79
2022/05/22 09:13:33;;;;;;;3.78;1.73;;;;;;;12.44;100.00;98534.69;4399416;32;20058;-77
2022/05/22 09:16:16;;;;;;;2.15;1.95;;;;;;;11.93;100.00;98511.28;4384039;32;20084;-79
2022/05/22 09:18:52;;;;;;;4.82;3.30;;;;;;;12.16;100.00;98501.03;4398728;32;20055;-78
2022/05/22 09:21:25;;;;;;;6.85;1.95;;;;;;;12.11;100.00;98499.16;4399692;32;20039;-79
2022/05/22 09:24:02;;;;;;;4.95;2.17;;;;;;;12.10;100.00;98545.28;4398635;32;20433;-78
2022/05/22 09:26:41;;;;;;;3.87;2.10;;;;;;;12.04;100.00;98546.38;4401282;32;20031;-78
2022/05/22 09:29:17;;;;;;;6.87;2.10;;;;;;;11.88;100.00;98549.03;4399789;32;20046;-79
2022/05/22 09:31:56;;;;;;;6.72;1.90;;;;;;;11.79;100.00;98547.94;4398699;32;20078;-78
2022/05/22 09:34:31;;;;;;;5.07;2.15;;;;;;;12.01;100.00;98546.91;4388339;32;20039;-77
2022/05/22 09:37:23;;;;;;;5.20;2.20;;;;;;;11.85;100.00;98532.59;4372052;32;20052;-77
2022/05/22 09:40:15;;;;;;;6.45;2.33;;;;;;;11.82;100.00;98506.94;4400546;32;20161;-77
2022/05/22 09:42:52;;;;;;;4.60;2.00;;;;;;;12.14;100.00;98540.94;4399466;32;20566;-78
2022/05/22 09:45:57;;;;;;;8.43;2.97;;;;;;;12.01;100.00;98536.91;4386263;32;20034;-79
2022/05/22 09:48:29;;;;;;;3.25;2.10;;;;;;;12.07;100.00;98497.25;4376603;32;20257;-78
2022/05/22 09:51:16;;;;;;;6.32;2.00;;;;;;;12.33;100.00;98543.88;4400567;32;20065;-78
2022/05/22 09:54:04;;;;;;;4.60;1.85;;;;;;;12.19;100.00;98543.66;4396310;32;20043;-78
2022/05/22 09:56:42;;;;;;;2.60;2.40;;;;;;;12.57;100.00;98538.69;4385647;32;20069;-77
2022/05/22 09:59:37;;;;;;;3.67;2.25;;;;;;;12.90;100.00;98536.44;4379537;32;20329;-78
2022/05/22 10:02:22;;;;;;;1.67;1.50;;;;;;;13.16;100.00;98533.59;4387067;32;20064;-77
2022/05/22 10:05:12;;;;;;;9.13;2.35;;;;;;;13.17;100.00;98502.78;4399237;32;20039;-79
2022/05/22 10:08:13;;;;;;;6.55;2.33;;;;;;;13.66;100.00;98539.81;4385797;32;20042;-77
2022/05/22 10:10:47;;;;;;;6.37;1.35;;;;;;;13.56;100.00;98538.00;4400922;32;20087;-78
2022/05/22 10:13:20;;;;;;;9.32;2.35;;;;;;;13.71;100.00;98539.78;4400584;32;20192;-77
2022/05/22 10:16:16;;;;;;;3.47;1.60;;;;;;;14.02;100.00;98531.41;4397128;32;20395;-77
2022/05/22 10:18:57;;;;;;;4.10;1.23;;;;;;;13.99;100.00;98529.25;4390550;32;20043;-78
2022/05/22 10:21:41;;;;;;;1.55;1.30;;;;;;;14.08;100.00;98505.09;4384441;32;20031;-78
2022/05/22 10:24:26;;;;;;;4.12;1.10;;;;;;;14.41;100.00;98492.56;4402147;32;20039;-78
2022/05/22 10:27:38;;;;;;;5.30;1.17;;;;;;;14.68;100.00;98537.28;4391358;32;20335;-77
2022/05/22 10:30:19;;;;;;;3.87;1.30;;;;;;;14.94;100.00;98526.12;4402762;32;20064;-77
2022/05/22 10:32:53;;;;;;;3.35;1.00;;;;;;;14.91;100.00;98527.50;4402805;32;20394;-78
2022/05/22 10:35:19;;;;;;;1.33;1.20;;;;;;;14.65;100.00;98546.78;4389317;32;20047;-78
2022/05/22 10:38:08;;;;;;;1.00;1.00;;;;;;;14.31;100.00;98541.41;4390082;32;20069;-77
2022/05/22 10:43:19;;;;;;;2.90;1.15;;;;;;;14.04;100.00;98541.94;4400970;32;20031;-77
2022/05/22 10:45:46;;;;;;;3.15;1.23;;;;;;;14.17;100.00;98530.47;4402160;32;20082;-79
2022/05/22 10:48:23;;;;;;;2.55;1.35;;;;;;;14.28;100.00;98544.69;4389310;32;20026;-77
2022/05/22 10:50:56;;;;;;;0.88;0.88;;;;;;;14.07;100.00;98512.44;4387775;32;20075;-79
2022/05/22 10:53:37;;;;;;;4.57;0.90;;;;;;;14.01;100.00;98494.63;4401576;32;20058;-78
2022/05/22 10:56:29;;;;;;;2.70;1.10;;;;;;;14.15;100.00;98533.47;4388413;32;20060;-78
2022/05/22 10:58:58;;;;;;;1.40;1.30;;;;;;;14.12;100.00;98555.69;4388784;32;20275;-77
2022/05/22 11:01:31;;;;;;;1.75;1.62;;;;;;;14.06;100.00;98567.66;4402129;32;20334;-76
2022/05/22 11:04:16;;;;;;;4.28;2.35;;;;;;;14.09;100.00;98558.16;4389276;32;20038;-77
2022/05/22 11:06:56;;;;;;;4.18;1.98;;;;;;;14.04;100.00;98572.53;4401940;32;20076;-77
2022/05/22 11:09:24;;;;;;;1.83;1.48;;;;;;;13.81;100.00;98572.16;4401080;32;20035;-78
2022/05/22 11:12:02;;;;;;;1.70;1.60;;;;;;;13.55;100.00;98495.81;4401724;32;20166;-77
2022/05/22 11:14:32;;;;;;;1.20;1.10;;;;;;;13.66;100.00;98575.00;4402224;32;20068;-77
2022/05/22 11:17:09;;;;;;;1.17;1.10;;;;;;;13.46;100.00;98561.59;4389458;32;20047;-77
2022/05/22 11:19:39;;;;;;;5.68;1.17;;;;;;;13.57;100.00;98533.38;4399894;32;20039;-78
2022/05/22 11:22:17;;;;;;;2.22;1.08;;;;;;;13.84;100.00;98561.88;4403228;32;21083;-78
2022/05/22 11:25:12;;;;;;;0.80;0.80;;;;;;;13.94;100.00;98570.69;4387483;32;20049;-79
2022/05/22 11:28:17;;;;;;;1.35;1.00;;;;;;;13.77;100.00;98522.41;4402551;32;20106;-76
2022/05/22 11:30:43;;;;;;;1.45;1.35;;;;;;;14.19;100.00;98549.12;4386925;32;20048;-78
2022/05/22 11:33:33;;;;;;;0.70;0.70;;;;;;;14.19;100.00;98559.97;4387854;32;20081;-77
2022/05/22 11:36:20;;;;;;;0.80;0.80;;;;;;;14.45;100.00;98563.22;4358093;32;20190;-79
2022/05/22 11:39:21;;;;;;;1.00;1.00;;;;;;;14.37;100.00;98520.50;4377718;32;20038;-76
2022/05/22 11:42:41;;;;;;;0.88;0.88;;;;;;;14.75;100.00;98555.91;4389957;32;20080;-77
2022/05/22 11:45:18;;;;;;;0.98;0.98;;;;;;;14.77;100.00;98557.19;4389112;32;20064;-77
2022/05/22 11:48:09;;;;;;;0.77;0.77;;;;;;;14.67;100.00;98560.84;4388420;32;20043;-76
2022/05/22 11:51:15;;;;;;;1.10;1.05;;;;;;;14.95;100.00;98557.53;4387497;32;20030;-77
2022/05/22 11:53:54;;;;;;;1.67;1.00;;;;;;;14.71;100.00;98563.81;4402014;32;20070;-79
2022/05/22 11:56:44;;;;;;;1.10;1.00;;;;;;;14.69;100.00;98572.22;4391838;32;20366;-76
2022/05/22 11:59:22;;;;;;;1.27;0.77;;;;;;;14.41;100.00;98563.00;4388606;32;20040;-76
2022/05/22 12:02:05;;;;;;;3.60;0.85;;;;;;;14.32;100.00;98570.13;4402544;32;20051;-77